createdAt,value
2018-08-14T00:00:34.417Z,2.00
2018-08-14T00:03:05.109Z,1.90
2018-08-14T00:05:34.334Z,2.20
2018-08-14T00:08:03.441Z,1.80
2018-08-14T00:10:32.643Z,2.10
2018-08-14T00:13:02.083Z,2.10
2018-08-14T00:15:31.113Z,2.10
2018-08-14T00:18:00.150Z,1.90
2018-08-14T00:20:29.727Z,2.30
2018-08-14T00:23:00.631Z,1.63
2018-08-14T00:25:29.693Z,2.23
2018-08-14T00:27:58.987Z,1.77
2018-08-14T00:30:29.588Z,2.30
2018-08-14T00:32:59.658Z,1.63
2018-08-14T00:35:28.870Z,2.20
2018-08-14T00:37:58.366Z,1.70
2018-08-14T00:40:28.788Z,1.90
2018-08-14T00:42:59.502Z,1.93
2018-08-14T00:45:28.831Z,1.93
2018-08-14T00:47:58.033Z,2.10
2018-08-14T00:50:27.255Z,2.30
2018-08-14T00:52:56.346Z,1.93
2018-08-14T00:55:25.338Z,2.00
2018-08-14T00:57:54.523Z,1.73
2018-08-14T01:00:25.377Z,2.27
2018-08-14T01:02:54.654Z,1.73
2018-08-14T01:05:24.501Z,1.80
2018-08-14T01:07:53.532Z,2.13
2018-08-14T01:10:23.181Z,1.90
2018-08-14T01:12:56.310Z,1.70
2018-08-14T01:15:26.792Z,2.40
2018-08-14T01:17:56.752Z,2.00
2018-08-14T01:20:26.978Z,1.90
2018-08-14T01:22:56.238Z,1.87
2018-08-14T01:25:25.390Z,1.97
2018-08-14T01:27:55.143Z,1.80
2018-08-14T01:30:26.074Z,2.53
2018-08-14T01:32:55.188Z,2.80
2018-08-14T01:35:24.492Z,2.00
2018-08-14T01:37:54.009Z,2.03
2018-08-14T01:40:23.454Z,2.17
2018-08-14T01:42:52.602Z,2.23
2018-08-14T01:45:21.589Z,2.33
2018-08-14T01:47:50.678Z,1.80
2018-08-14T01:50:21.730Z,2.23
2018-08-14T01:52:50.870Z,2.23
2018-08-14T01:55:21.119Z,2.10
2018-08-14T01:57:50.796Z,2.20
2018-08-14T02:00:21.143Z,2.07
2018-08-14T02:02:50.616Z,2.60
2018-08-14T02:05:20.170Z,2.60
2018-08-14T02:07:49.701Z,2.27
2018-08-14T02:10:20.916Z,2.10
2018-08-14T02:12:49.911Z,2.10
2018-08-14T02:15:19.788Z,1.80
2018-08-14T02:17:49.194Z,2.20
2018-08-14T02:20:20.772Z,2.37
2018-08-14T02:22:51.554Z,2.13
2018-08-14T02:25:21.328Z,2.00
2018-08-14T02:27:50.494Z,1.97
2018-08-14T02:30:19.813Z,2.20
2018-08-14T02:32:51.798Z,2.10
2018-08-14T02:35:21.427Z,2.10
2018-08-14T02:37:50.422Z,2.23
2018-08-14T02:40:22.615Z,2.07
2018-08-14T02:42:52.554Z,1.80
2018-08-14T02:45:22.500Z,2.10
2018-08-14T02:47:52.420Z,2.10
2018-08-14T02:50:21.652Z,2.13
2018-08-14T02:52:50.707Z,1.97
2018-08-14T02:55:21.809Z,1.87
2018-08-14T02:57:51.017Z,2.17
2018-08-14T03:00:25.006Z,2.13
2018-08-14T03:02:54.109Z,2.23
2018-08-14T03:05:23.397Z,2.30
2018-08-14T03:07:52.678Z,2.00
2018-08-14T03:10:21.950Z,2.43
2018-08-14T03:12:51.497Z,1.87
2018-08-14T03:15:21.986Z,2.13
2018-08-14T03:17:52.918Z,2.30
2018-08-14T03:20:22.152Z,1.90
2018-08-14T03:22:51.741Z,2.53
2018-08-14T03:25:21.167Z,2.87
2018-08-14T03:27:50.633Z,2.40
2018-08-14T03:30:20.186Z,2.33
2018-08-14T03:32:49.527Z,1.77
2018-08-14T03:35:18.652Z,2.10
2018-08-14T03:37:47.695Z,2.20
2018-08-14T03:40:18.408Z,2.50
2018-08-14T03:42:48.483Z,2.60
2018-08-14T03:45:17.635Z,2.17
2018-08-14T03:47:47.146Z,2.27
2018-08-14T03:50:16.225Z,2.23
2018-08-14T03:52:45.363Z,2.20
2018-08-14T03:55:16.810Z,2.20
2018-08-14T03:57:45.721Z,2.60
2018-08-14T04:00:16.650Z,2.60
2018-08-14T04:02:45.901Z,2.27
2018-08-14T04:05:16.061Z,2.07
2018-08-14T04:07:46.525Z,2.03
2018-08-14T04:10:16.194Z,2.17
2018-08-14T04:12:46.407Z,2.50
2018-08-14T04:15:16.377Z,2.07
2018-08-14T04:17:46.464Z,2.20
2018-08-14T04:20:17.011Z,2.00
2018-08-14T04:22:45.968Z,2.17
2018-08-14T04:25:15.042Z,2.00
2018-08-14T04:27:44.165Z,2.63
2018-08-14T04:30:14.530Z,2.57
2018-08-14T04:32:44.951Z,2.27
2018-08-14T04:35:14.654Z,2.47
2018-08-14T04:37:44.339Z,2.23
2018-08-14T04:40:14.020Z,2.20
2018-08-14T04:42:43.672Z,2.33
2018-08-14T04:45:12.719Z,2.20
2018-08-14T04:47:41.761Z,2.17
2018-08-14T04:50:13.914Z,2.13
2018-08-14T04:52:43.495Z,2.30
2018-08-14T04:55:12.866Z,2.73
2018-08-14T04:57:42.913Z,2.40
2018-08-14T05:00:13.937Z,2.53
2018-08-14T05:02:43.625Z,2.30
2018-08-14T05:05:13.432Z,2.63
2018-08-14T05:07:44.978Z,2.77
2018-08-14T05:10:15.419Z,2.10
2018-08-14T05:12:45.512Z,2.40
2018-08-14T05:15:14.631Z,2.13
2018-08-14T05:17:43.986Z,2.73
2018-08-14T05:20:14.094Z,2.10
2018-08-14T05:22:44.698Z,2.23
2018-08-14T05:25:14.221Z,2.20
2018-08-14T05:27:43.341Z,2.37
2018-08-14T05:30:15.189Z,2.40
2018-08-14T05:32:44.403Z,2.17
2018-08-14T05:35:13.642Z,1.97
2018-08-14T05:37:43.054Z,2.00
2018-08-14T05:40:12.726Z,4.07
2018-08-14T05:42:42.689Z,4.60
2018-08-14T05:45:13.735Z,2.37
2018-08-14T05:47:43.899Z,2.70
2018-08-14T05:50:16.403Z,2.87
2018-08-14T05:52:45.892Z,2.37
2018-08-14T05:55:15.428Z,2.70
2018-08-14T05:57:45.551Z,2.33
2018-08-14T06:00:17.445Z,2.30
2018-08-14T06:02:46.924Z,2.67
2018-08-14T06:05:16.800Z,2.10
2018-08-14T06:07:46.153Z,2.20
2018-08-14T06:10:15.365Z,2.10
2018-08-14T06:12:44.688Z,1.90
2018-08-14T06:15:14.554Z,1.83
2018-08-14T06:17:43.560Z,2.07
2018-08-14T06:20:14.787Z,2.30
2018-08-14T06:22:44.304Z,2.20
2018-08-14T06:25:13.880Z,2.00
2018-08-14T06:27:43.099Z,2.47
2018-08-14T06:30:17.015Z,2.00
2018-08-14T06:32:46.821Z,2.40
2018-08-14T06:35:15.761Z,2.20
2018-08-14T06:37:45.183Z,1.90
2018-08-14T06:40:15.779Z,2.40
2018-08-14T06:42:45.051Z,1.90
2018-08-14T06:45:16.853Z,2.10
2018-08-14T06:47:46.489Z,1.97
2018-08-14T06:50:18.402Z,2.40
2018-08-14T06:52:47.868Z,2.20
2018-08-14T06:55:17.614Z,2.57
2018-08-14T06:57:47.551Z,2.33
2018-08-14T07:00:19.902Z,1.90
2018-08-14T07:02:50.117Z,2.40
2018-08-14T07:05:19.539Z,2.00
2018-08-14T07:07:49.297Z,2.10
2018-08-14T07:10:18.520Z,2.30
2018-08-14T07:12:47.566Z,2.50
2018-08-14T07:15:19.290Z,2.20
2018-08-14T07:17:48.857Z,2.13
2018-08-14T07:20:17.926Z,2.70
2018-08-14T07:22:47.305Z,2.10
2018-08-14T07:25:18.550Z,2.50
2018-08-14T07:27:47.838Z,2.47
2018-08-14T07:30:19.580Z,2.20
2018-08-14T07:32:49.353Z,2.70
2018-08-14T07:35:18.483Z,2.47
2018-08-14T07:37:48.734Z,2.87
2018-08-14T07:40:18.664Z,3.00
2018-08-14T07:42:48.075Z,2.20
2018-08-14T07:45:18.141Z,2.40
2018-08-14T07:47:47.545Z,2.63
2018-08-14T07:50:16.761Z,2.47
2018-08-14T07:52:46.447Z,2.30
2018-08-14T07:55:15.744Z,2.40
2018-08-14T07:57:45.077Z,2.57
2018-08-14T08:00:19.698Z,2.77
2018-08-14T08:02:49.884Z,2.17
2018-08-14T08:05:20.106Z,2.57
2018-08-14T08:07:49.833Z,2.37
2018-08-14T08:10:19.504Z,2.13
2018-08-14T08:12:49.102Z,2.50
2018-08-14T08:15:19.270Z,3.00
2018-08-14T08:17:49.400Z,2.60
2018-08-14T08:20:29.373Z,3.03
2018-08-14T08:22:59.320Z,3.20
2018-08-14T08:25:29.076Z,3.23
2018-08-14T08:28:04.545Z,3.03
2018-08-14T08:30:34.331Z,3.00
2018-08-14T08:33:03.621Z,3.27
2018-08-14T08:35:32.570Z,3.40
2018-08-14T08:38:02.229Z,2.83
2018-08-14T08:40:38.125Z,3.03
2018-08-14T08:43:07.372Z,3.30
2018-08-14T08:45:36.696Z,3.40
2018-08-14T08:48:17.058Z,3.70
2018-08-14T08:50:46.126Z,3.00
2018-08-14T08:53:16.682Z,3.43
2018-08-14T08:55:46.067Z,3.53
2018-08-14T08:58:15.518Z,3.73
2018-08-14T09:00:44.758Z,3.43
2018-08-14T09:03:13.946Z,3.53
2018-08-14T09:05:43.139Z,3.50
2018-08-14T09:08:14.185Z,3.43
2018-08-14T09:10:43.217Z,3.40
2018-08-14T09:13:13.786Z,3.60
2018-08-14T09:15:43.295Z,3.87
2018-08-14T09:18:13.021Z,3.70
2018-08-14T09:20:42.496Z,4.20
2018-08-14T09:23:11.602Z,3.70
2018-08-14T09:25:41.535Z,3.90
2018-08-14T09:28:10.694Z,3.50
2018-08-14T09:30:40.751Z,4.30
2018-08-14T09:33:10.053Z,4.13
2018-08-14T09:35:39.141Z,3.87
2018-08-14T09:38:08.560Z,4.20
2018-08-14T09:40:45.528Z,3.60
2018-08-14T09:43:17.469Z,4.13
2018-08-14T09:45:48.123Z,4.40
2018-08-14T09:48:17.459Z,4.10
2018-08-14T09:50:46.951Z,4.17
2018-08-14T09:53:16.103Z,4.60
2018-08-14T09:55:45.421Z,4.17
2018-08-14T09:58:14.985Z,4.40
2018-08-14T10:00:49.228Z,3.80
2018-08-14T10:03:23.448Z,4.17
2018-08-14T10:05:57.509Z,4.50
2018-08-14T10:08:26.815Z,4.30
2018-08-14T10:10:55.874Z,5.17
2018-08-14T10:13:24.985Z,4.40
2018-08-14T10:15:54.192Z,4.57
2018-08-14T10:18:25.921Z,4.37
2018-08-14T10:20:55.081Z,4.40
2018-08-14T10:23:25.805Z,3.93
2018-08-14T10:25:56.418Z,4.83
2018-08-14T10:28:26.409Z,4.07
2018-08-14T10:30:55.723Z,4.50
2018-08-14T10:33:25.050Z,4.60
2018-08-14T10:35:54.608Z,5.43
2018-08-14T10:38:23.518Z,4.67
2018-08-14T10:40:52.587Z,4.90
2018-08-14T10:43:21.836Z,5.23
2018-08-14T10:45:50.886Z,5.50
2018-08-14T10:48:21.801Z,4.47
2018-08-14T10:50:50.969Z,5.20
2018-08-14T10:53:20.275Z,4.80
2018-08-14T10:55:49.352Z,4.20
2018-08-14T10:58:18.691Z,5.43
2018-08-14T11:00:48.570Z,4.87
2018-08-14T11:03:17.814Z,4.87
2018-08-14T11:05:47.774Z,4.80
2018-08-14T11:08:17.065Z,4.50
2018-08-14T11:10:51.169Z,4.53
2018-08-14T11:13:20.833Z,4.80
2018-08-14T11:15:49.788Z,4.77
2018-08-14T11:18:19.703Z,5.33
2018-08-14T11:20:48.988Z,4.20
2018-08-14T11:23:18.022Z,4.73
2018-08-14T11:25:47.455Z,5.00
2018-08-14T11:28:16.783Z,4.60
2018-08-14T11:30:46.081Z,5.07
2018-08-14T11:33:15.473Z,4.90
2018-08-14T11:35:49.641Z,4.70
2018-08-14T11:38:19.110Z,4.60
2018-08-14T11:40:48.274Z,5.20
2018-08-14T11:43:17.519Z,5.30
2018-08-14T11:45:46.794Z,4.80
2018-08-14T11:48:15.966Z,4.77
2018-08-14T11:50:45.393Z,4.47
2018-08-14T11:53:14.846Z,5.03
2018-08-14T11:55:44.161Z,5.53
2018-08-14T11:58:13.538Z,5.30
2018-08-14T12:00:42.951Z,5.03
2018-08-14T12:03:12.134Z,5.47
2018-08-14T12:05:41.083Z,4.70
2018-08-14T12:08:11.593Z,5.10
2018-08-14T12:10:41.066Z,4.80
2018-08-14T12:13:10.251Z,4.70
2018-08-14T12:15:39.283Z,5.70
2018-08-14T12:18:08.417Z,5.23
2018-08-14T12:20:37.809Z,5.87
2018-08-14T12:23:06.801Z,5.27
2018-08-14T12:25:35.955Z,4.90
2018-08-14T12:28:05.625Z,5.70
2018-08-14T12:30:35.216Z,5.63
2018-08-14T12:33:04.389Z,5.50
2018-08-14T12:35:33.536Z,5.10
2018-08-14T12:38:02.779Z,5.43
2018-08-14T12:40:38.066Z,5.97
2018-08-14T12:43:07.949Z,5.60
2018-08-14T12:45:37.251Z,5.57
2018-08-14T12:48:06.654Z,5.80
2018-08-14T12:50:35.927Z,5.40
2018-08-14T12:53:05.126Z,5.47
2018-08-14T12:55:34.592Z,5.20
2018-08-14T12:58:04.334Z,5.70
2018-08-14T13:00:33.415Z,5.20
2018-08-14T13:03:02.557Z,5.70
2018-08-14T13:05:32.063Z,5.33
2018-08-14T13:08:01.264Z,5.93
2018-08-14T13:10:31.839Z,5.23
2018-08-14T13:13:01.307Z,5.37
2018-08-14T13:15:30.285Z,5.40
2018-08-14T13:18:12.127Z,5.53
2018-08-14T13:20:41.746Z,5.60
2018-08-14T13:23:13.716Z,6.17
2018-08-14T13:25:42.949Z,5.70
2018-08-14T13:28:12.515Z,5.27
2018-08-14T13:30:42.178Z,5.50
2018-08-14T13:33:11.278Z,4.60
2018-08-14T13:35:41.105Z,5.30
2018-08-14T13:38:10.272Z,5.53
2018-08-14T13:40:39.248Z,5.17
2018-08-14T13:43:08.526Z,4.43
2018-08-14T13:45:37.447Z,4.03
2018-08-14T13:48:06.690Z,4.10
2018-08-14T13:50:36.155Z,3.90
2018-08-14T13:53:05.355Z,4.70
2018-08-14T13:55:34.659Z,4.10
2018-08-14T13:58:03.676Z,4.47
2018-08-14T14:00:32.840Z,4.03
2018-08-14T14:03:02.277Z,4.57
2018-08-14T14:05:31.220Z,4.00
2018-08-14T14:08:00.678Z,4.33
2018-08-14T14:10:29.613Z,3.93
2018-08-14T14:12:58.948Z,3.27
2018-08-14T14:15:28.513Z,2.50
2018-08-14T14:17:58.095Z,2.33
2018-08-14T14:20:30.271Z,2.13
2018-08-14T14:22:59.371Z,2.30
2018-08-14T14:25:28.971Z,1.90
2018-08-14T14:27:58.011Z,1.90
2018-08-14T14:30:27.170Z,2.07
2018-08-14T14:32:56.248Z,2.20
2018-08-14T14:35:25.228Z,2.40
2018-08-14T14:37:56.399Z,2.33
2018-08-14T14:40:27.830Z,2.53
2018-08-14T14:42:59.499Z,2.63
2018-08-14T14:45:28.659Z,2.87
2018-08-14T14:47:57.974Z,2.70
2018-08-14T14:50:27.155Z,3.20
2018-08-14T14:52:56.259Z,3.40
2018-08-14T14:55:25.430Z,3.53
2018-08-14T14:57:54.469Z,3.70
2018-08-14T15:00:27.465Z,3.63
2018-08-14T15:02:57.531Z,4.17
2018-08-14T15:05:26.480Z,5.40
2018-08-14T15:07:55.560Z,3.70
2018-08-14T15:10:24.704Z,4.23
2018-08-14T15:12:53.977Z,3.73
2018-08-14T15:15:23.405Z,32.50
2018-08-14T15:17:53.096Z,15.57
2018-08-14T15:20:26.440Z,32.23
2018-08-14T15:22:57.173Z,6.57
2018-08-14T15:25:26.845Z,5.00
2018-08-14T15:29:01.997Z,4.30
2018-08-14T15:31:31.283Z,4.70
2018-08-14T15:34:00.920Z,4.43
2018-08-14T15:36:31.125Z,4.63
2018-08-14T15:39:01.489Z,4.73
2018-08-14T15:41:30.990Z,4.30
2018-08-14T15:44:00.755Z,4.20
2018-08-14T15:46:29.824Z,4.97
2018-08-14T15:48:59.313Z,4.60
2018-08-14T15:51:28.418Z,4.43
2018-08-14T15:53:57.365Z,4.13
2018-08-14T15:56:26.499Z,4.23
2018-08-14T15:58:55.511Z,4.40
2018-08-14T16:01:25.030Z,4.00
2018-08-14T16:03:54.255Z,4.30
2018-08-14T16:06:23.204Z,4.27
2018-08-14T16:08:52.251Z,3.73
2018-08-14T16:11:21.600Z,4.10
2018-08-14T16:13:51.139Z,3.77
2018-08-14T16:16:20.225Z,4.37
2018-08-14T16:18:49.174Z,4.00
2018-08-14T16:21:18.686Z,3.87
2018-08-14T16:23:47.922Z,3.80
2018-08-14T16:26:17.758Z,3.50
2018-08-14T16:28:46.692Z,3.47
2018-08-14T16:31:16.098Z,3.60
2018-08-14T16:33:45.271Z,3.87
2018-08-14T16:36:14.428Z,3.27
2018-08-14T16:38:43.892Z,3.10
2018-08-14T16:41:13.196Z,3.03
2018-08-14T16:43:42.338Z,2.80
2018-08-14T16:46:11.552Z,2.30
2018-08-14T16:48:40.603Z,2.80
2018-08-14T16:51:09.786Z,2.40
2018-08-14T16:53:39.022Z,2.90
2018-08-14T16:56:08.700Z,2.57
2018-08-14T16:58:37.689Z,2.70
2018-08-14T17:01:06.807Z,2.30
2018-08-14T17:03:35.828Z,2.23
2018-08-14T17:06:05.284Z,2.60
2018-08-14T17:08:35.470Z,2.20
2018-08-14T17:11:04.525Z,2.27
2018-08-14T17:13:33.535Z,2.10
2018-08-14T17:16:03.020Z,1.90
2018-08-14T17:18:33.315Z,2.80
2018-08-14T17:21:00.908Z,2.33
2018-08-14T17:23:29.834Z,2.20
2018-08-14T17:25:59.781Z,2.13
2018-08-14T17:28:29.496Z,2.10
2018-08-14T17:30:58.458Z,2.00
2018-08-14T17:33:27.587Z,2.03
2018-08-14T17:35:56.621Z,2.10
2018-08-14T17:38:25.690Z,2.00
2018-08-14T17:40:55.298Z,2.10
2018-08-14T17:43:24.421Z,2.10
2018-08-14T17:45:53.404Z,2.33
2018-08-14T17:48:22.502Z,2.57
2018-08-14T17:50:52.222Z,4.30
2018-08-14T17:53:21.721Z,3.20
2018-08-14T17:55:50.795Z,2.80
2018-08-14T17:58:19.940Z,1.90
2018-08-14T18:00:49.553Z,2.60
2018-08-14T18:03:18.584Z,2.87
2018-08-14T18:05:47.827Z,1.80
2018-08-14T18:08:16.890Z,2.87
2018-08-14T18:10:46.023Z,2.37
2018-08-14T18:13:15.472Z,3.10
2018-08-14T18:15:45.185Z,2.90
2018-08-14T18:18:14.202Z,2.50
2018-08-14T18:20:43.477Z,2.50
2018-08-14T18:23:12.714Z,2.23
2018-08-14T18:25:42.158Z,1.97
2018-08-14T18:28:11.080Z,3.53
2018-08-14T18:30:40.236Z,2.83
2018-08-14T18:33:09.478Z,2.53
2018-08-14T18:35:39.196Z,2.70
2018-08-14T18:38:08.225Z,2.10
2018-08-14T18:40:37.178Z,2.47
2018-08-14T18:43:06.590Z,2.10
2018-08-14T18:45:35.857Z,1.90
2018-08-14T18:48:05.656Z,2.30
2018-08-14T18:50:34.757Z,2.03
2018-08-14T18:53:04.643Z,2.40
2018-08-14T18:55:34.198Z,2.30
2018-08-14T18:58:03.272Z,2.00
2018-08-14T19:00:32.430Z,2.63
2018-08-14T19:03:01.560Z,2.10
2018-08-14T19:05:30.599Z,2.10
2018-08-14T19:08:00.401Z,1.87
2018-08-14T19:10:29.748Z,1.60
2018-08-14T19:12:58.826Z,1.80
2018-08-14T19:15:33.081Z,1.80
2018-08-14T19:18:02.940Z,1.80
2018-08-14T19:20:32.356Z,2.00
2018-08-14T19:23:02.146Z,1.60
2018-08-14T19:25:31.367Z,1.87
2018-08-14T19:28:01.324Z,1.80
2018-08-14T19:30:30.452Z,1.80
2018-08-14T19:33:00.280Z,2.10
2018-08-14T19:35:29.425Z,1.80
2018-08-14T19:37:58.598Z,1.97
2018-08-14T19:40:27.988Z,1.60
2018-08-14T19:42:57.163Z,2.23
2018-08-14T19:45:26.674Z,2.33
2018-08-14T19:47:55.692Z,1.70
2018-08-14T19:50:25.272Z,1.77
2018-08-14T19:52:54.345Z,1.50
2018-08-14T19:55:23.994Z,2.00
2018-08-14T19:57:53.226Z,1.53
2018-08-14T20:00:25.681Z,1.67
2018-08-14T20:02:55.252Z,1.70
2018-08-14T20:05:25.269Z,1.83
2018-08-14T20:07:54.459Z,2.40
2018-08-14T20:10:24.240Z,1.77
2018-08-14T20:12:53.638Z,1.83
2018-08-14T20:15:28.296Z,1.60
2018-08-14T20:17:57.329Z,1.93
2018-08-14T20:20:26.540Z,1.47
2018-08-14T20:22:56.075Z,1.73
2018-08-14T20:25:25.131Z,1.90
2018-08-14T20:27:54.354Z,1.53
2018-08-14T20:30:23.654Z,2.23
2018-08-14T20:32:53.447Z,1.90
2018-08-14T20:35:22.515Z,1.80
2018-08-14T20:37:51.635Z,2.20
2018-08-14T20:40:22.032Z,1.63
2018-08-14T20:42:51.283Z,1.97
2018-08-14T20:45:20.247Z,1.63
2018-08-14T20:47:49.453Z,1.70
2018-08-14T20:50:19.650Z,1.50
2018-08-14T20:52:49.286Z,1.60
2018-08-14T20:55:20.760Z,1.77
2018-08-14T20:57:50.164Z,1.80
2018-08-14T21:00:23.345Z,1.90
2018-08-14T21:02:53.670Z,1.70
2018-08-14T21:05:24.040Z,1.67
2018-08-14T21:07:53.214Z,1.80
2018-08-14T21:10:23.074Z,2.00
2018-08-14T21:12:52.526Z,1.80
2018-08-14T21:15:26.791Z,1.50
2018-08-14T21:17:56.127Z,1.93
2018-08-14T21:20:25.902Z,1.70
2018-08-14T21:22:55.091Z,1.60
2018-08-14T21:25:24.324Z,1.70
2018-08-14T21:27:53.362Z,1.80
2018-08-14T21:30:22.320Z,1.97
2018-08-14T21:32:52.726Z,1.90
2018-08-14T21:35:21.732Z,1.60
2018-08-14T21:37:50.700Z,1.77
2018-08-14T21:40:20.209Z,1.60
2018-08-14T21:42:50.727Z,1.67
2018-08-14T21:45:21.130Z,1.60
2018-08-14T21:47:50.211Z,1.67
2018-08-14T21:50:19.503Z,1.70
2018-08-14T21:52:48.691Z,1.83
2018-08-14T21:55:18.279Z,1.90
2018-08-14T21:57:47.402Z,1.97
2018-08-14T22:00:31.654Z,2.00
2018-08-14T22:03:00.731Z,1.87
2018-08-14T22:05:30.356Z,1.97
2018-08-14T22:07:59.728Z,1.90
2018-08-14T22:10:28.936Z,1.40
2018-08-14T22:12:57.918Z,1.80
2018-08-14T22:15:27.343Z,1.70
2018-08-14T22:17:56.727Z,1.83
2018-08-14T22:20:25.759Z,1.73
2018-08-14T22:22:54.839Z,2.37
2018-08-14T22:25:24.581Z,1.50
2018-08-14T22:27:53.651Z,1.80
2018-08-14T22:30:23.079Z,1.67
2018-08-14T22:32:52.778Z,2.17
2018-08-14T22:35:21.864Z,1.67
2018-08-14T22:37:51.114Z,1.87
2018-08-14T22:40:20.656Z,1.67
2018-08-14T22:42:49.767Z,1.90
2018-08-14T22:45:18.782Z,1.80
2018-08-14T22:47:47.683Z,1.50
2018-08-14T22:50:16.981Z,1.80
2018-08-14T22:52:45.872Z,1.63
2018-08-14T22:55:14.801Z,1.60
2018-08-14T22:57:43.916Z,1.70
2018-08-14T23:00:15.977Z,1.90
2018-08-14T23:02:51.355Z,2.03
2018-08-14T23:05:20.950Z,1.77
2018-08-14T23:07:50.232Z,1.70
2018-08-14T23:10:20.465Z,1.60
2018-08-14T23:12:49.677Z,1.67
2018-08-14T23:15:18.778Z,1.60
2018-08-14T23:17:47.978Z,1.83
2018-08-14T23:20:17.068Z,1.77
2018-08-14T23:22:46.252Z,1.60
2018-08-14T23:25:15.387Z,1.83
2018-08-14T23:27:44.451Z,1.50
2018-08-14T23:30:14.908Z,1.87
2018-08-14T23:32:44.965Z,1.70
2018-08-14T23:35:14.123Z,1.70
2018-08-14T23:37:48.296Z,3.03
2018-08-14T23:40:17.389Z,1.57
2018-08-14T23:42:46.735Z,1.50
2018-08-14T23:45:16.626Z,1.70
2018-08-14T23:47:46.960Z,1.70
2018-08-14T23:50:16.638Z,1.80
2018-08-14T23:52:45.730Z,1.50
2018-08-14T23:55:14.783Z,1.40
2018-08-14T23:57:43.833Z,1.70
